sensor_id;sensor_type;location;lat;lon;timestamp;P1;durP1;ratioP1;P2;durP2;ratioP2
81619;SDS011;71028;53.410;6.710;2024-03-07T00:02:15;14.18;;;7.82;;
81619;SDS011;71028;53.410;6.710;2024-03-07T00:04:42;11.80;;;7.20;;
81619;SDS011;71028;53.410;6.710;2024-03-07T00:07:08;14.75;;;8.20;;
81619;SDS011;71028;53.410;6.710;2024-03-07T00:09:35;16.05;;;7.72;;
81619;SDS011;71028;53.410;6.710;2024-03-07T00:12:01;14.65;;;8.27;;
81619;SDS011;71028;53.410;6.710;2024-03-07T00:14:27;15.77;;;7.88;;
81619;SDS011;71028;53.410;6.710;2024-03-07T00:16:56;14.75;;;8.52;;
81619;SDS011;71028;53.410;6.710;2024-03-07T00:19:24;14.15;;;8.20;;
81619;SDS011;71028;53.410;6.710;2024-03-07T00:21:58;12.32;;;7.80;;
81619;SDS011;71028;53.410;6.710;2024-03-07T00:24:24;12.13;;;7.85;;
81619;SDS011;71028;53.410;6.710;2024-03-07T00:26:52;13.60;;;8.13;;
81619;SDS011;71028;53.410;6.710;2024-03-07T00:29:18;16.58;;;8.48;;
81619;SDS011;71028;53.410;6.710;2024-03-07T00:31:45;15.60;;;7.82;;
81619;SDS011;71028;53.410;6.710;2024-03-07T00:34:12;12.40;;;7.53;;
81619;SDS011;71028;53.410;6.710;2024-03-07T00:36:39;14.35;;;7.55;;
81619;SDS011;71028;53.410;6.710;2024-03-07T00:39:05;14.32;;;8.23;;
81619;SDS011;71028;53.410;6.710;2024-03-07T00:41:33;15.85;;;9.10;;
81619;SDS011;71028;53.410;6.710;2024-03-07T00:43:59;12.82;;;7.47;;
81619;SDS011;71028;53.410;6.710;2024-03-07T00:46:25;13.93;;;8.10;;
81619;SDS011;71028;53.410;6.710;2024-03-07T00:48:51;14.00;;;7.97;;
81619;SDS011;71028;53.410;6.710;2024-03-07T00:51:17;14.63;;;8.63;;
81619;SDS011;71028;53.410;6.710;2024-03-07T00:53:43;15.57;;;8.18;;
81619;SDS011;71028;53.410;6.710;2024-03-07T00:56:09;15.45;;;8.50;;
81619;SDS011;71028;53.410;6.710;2024-03-07T00:58:35;12.77;;;8.63;;
81619;SDS011;71028;53.410;6.710;2024-03-07T01:01:01;14.27;;;7.57;;
81619;SDS011;71028;53.410;6.710;2024-03-07T01:03:28;13.55;;;8.27;;
81619;SDS011;71028;53.410;6.710;2024-03-07T01:05:54;12.07;;;7.75;;
81619;SDS011;71028;53.410;6.710;2024-03-07T01:08:20;18.70;;;8.60;;
81619;SDS011;71028;53.410;6.710;2024-03-07T01:10:46;13.70;;;8.00;;
81619;SDS011;71028;53.410;6.710;2024-03-07T01:13:14;17.20;;;8.82;;
81619;SDS011;71028;53.410;6.710;2024-03-07T01:15:44;13.20;;;8.30;;
81619;SDS011;71028;53.410;6.710;2024-03-07T01:18:10;14.40;;;8.07;;
81619;SDS011;71028;53.410;6.710;2024-03-07T01:20:37;16.05;;;8.25;;
81619;SDS011;71028;53.410;6.710;2024-03-07T01:23:03;15.23;;;8.27;;
81619;SDS011;71028;53.410;6.710;2024-03-07T01:25:29;13.55;;;8.15;;
81619;SDS011;71028;53.410;6.710;2024-03-07T01:27:59;12.00;;;7.72;;
81619;SDS011;71028;53.410;6.710;2024-03-07T01:30:25;15.48;;;9.00;;
81619;SDS011;71028;53.410;6.710;2024-03-07T01:32:53;13.80;;;8.30;;
81619;SDS011;71028;53.410;6.710;2024-03-07T01:35:19;15.48;;;8.40;;
81619;SDS011;71028;53.410;6.710;2024-03-07T01:37:45;14.15;;;8.35;;
81619;SDS011;71028;53.410;6.710;2024-03-07T01:40:11;14.30;;;8.07;;
81619;SDS011;71028;53.410;6.710;2024-03-07T01:42:39;14.80;;;9.00;;
81619;SDS011;71028;53.410;6.710;2024-03-07T01:45:05;15.43;;;8.32;;
81619;SDS011;71028;53.410;6.710;2024-03-07T01:47:34;14.80;;;7.75;;
81619;SDS011;71028;53.410;6.710;2024-03-07T01:50:01;16.65;;;8.93;;
81619;SDS011;71028;53.410;6.710;2024-03-07T01:52:28;14.90;;;8.30;;
81619;SDS011;71028;53.410;6.710;2024-03-07T01:54:54;11.52;;;7.20;;
81619;SDS011;71028;53.410;6.710;2024-03-07T01:57:20;13.68;;;8.32;;
81619;SDS011;71028;53.410;6.710;2024-03-07T01:59:47;15.05;;;7.43;;
81619;SDS011;71028;53.410;6.710;2024-03-07T02:02:13;15.20;;;8.02;;
81619;SDS011;71028;53.410;6.710;2024-03-07T02:04:39;14.05;;;7.75;;
81619;SDS011;71028;53.410;6.710;2024-03-07T02:07:05;15.13;;;8.07;;
81619;SDS011;71028;53.410;6.710;2024-03-07T02:09:31;16.17;;;7.97;;
81619;SDS011;71028;53.410;6.710;2024-03-07T02:11:57;15.38;;;8.43;;
81619;SDS011;71028;53.410;6.710;2024-03-07T02:14:23;17.30;;;8.82;;
81619;SDS011;71028;53.410;6.710;2024-03-07T02:16:49;15.50;;;9.18;;
81619;SDS011;71028;53.410;6.710;2024-03-07T02:19:15;17.58;;;9.20;;
81619;SDS011;71028;53.410;6.710;2024-03-07T02:21:43;15.00;;;8.93;;
81619;SDS011;71028;53.410;6.710;2024-03-07T02:24:09;14.77;;;8.90;;
81619;SDS011;71028;53.410;6.710;2024-03-07T02:26:35;15.13;;;8.27;;
81619;SDS011;71028;53.410;6.710;2024-03-07T02:29:01;14.60;;;8.00;;
81619;SDS011;71028;53.410;6.710;2024-03-07T02:31:28;15.88;;;9.05;;
81619;SDS011;71028;53.410;6.710;2024-03-07T02:34:02;14.20;;;8.40;;
81619;SDS011;71028;53.410;6.710;2024-03-07T02:36:28;18.13;;;8.88;;
81619;SDS011;71028;53.410;6.710;2024-03-07T02:38:54;13.70;;;8.15;;
81619;SDS011;71028;53.410;6.710;2024-03-07T02:41:20;13.68;;;7.97;;
81619;SDS011;71028;53.410;6.710;2024-03-07T02:43:46;13.00;;;7.40;;
81619;SDS011;71028;53.410;6.710;2024-03-07T02:46:12;16.08;;;8.88;;
81619;SDS011;71028;53.410;6.710;2024-03-07T02:48:38;15.48;;;8.45;;
81619;SDS011;71028;53.410;6.710;2024-03-07T02:51:04;17.00;;;9.18;;
81619;SDS011;71028;53.410;6.710;2024-03-07T02:53:33;16.10;;;9.43;;
81619;SDS011;71028;53.410;6.710;2024-03-07T02:56:00;14.55;;;8.35;;
81619;SDS011;71028;53.410;6.710;2024-03-07T02:58:26;18.38;;;8.25;;
81619;SDS011;71028;53.410;6.710;2024-03-07T03:00:56;16.38;;;8.95;;
81619;SDS011;71028;53.410;6.710;2024-03-07T03:03:23;18.52;;;9.02;;
81619;SDS011;71028;53.410;6.710;2024-03-07T03:05:49;15.32;;;8.52;;
81619;SDS011;71028;53.410;6.710;2024-03-07T03:08:15;14.52;;;8.75;;
81619;SDS011;71028;53.410;6.710;2024-03-07T03:10:41;14.23;;;8.13;;
81619;SDS011;71028;53.410;6.710;2024-03-07T03:13:07;16.38;;;8.15;;
81619;SDS011;71028;53.410;6.710;2024-03-07T03:15:33;12.40;;;8.02;;
81619;SDS011;71028;53.410;6.710;2024-03-07T03:17:59;13.23;;;8.13;;
81619;SDS011;71028;53.410;6.710;2024-03-07T03:20:26;15.02;;;8.05;;
81619;SDS011;71028;53.410;6.710;2024-03-07T03:22:59;16.83;;;8.48;;
81619;SDS011;71028;53.410;6.710;2024-03-07T03:25:25;13.30;;;8.55;;
81619;SDS011;71028;53.410;6.710;2024-03-07T03:27:51;19.75;;;9.50;;
81619;SDS011;71028;53.410;6.710;2024-03-07T03:30:18;14.30;;;8.07;;
81619;SDS011;71028;53.410;6.710;2024-03-07T03:32:44;15.15;;;8.10;;
81619;SDS011;71028;53.410;6.710;2024-03-07T03:35:11;13.55;;;8.00;;
81619;SDS011;71028;53.410;6.710;2024-03-07T03:37:43;16.08;;;8.18;;
81619;SDS011;71028;53.410;6.710;2024-03-07T03:40:10;13.65;;;7.85;;
81619;SDS011;71028;53.410;6.710;2024-03-07T03:42:39;14.55;;;8.25;;
81619;SDS011;71028;53.410;6.710;2024-03-07T03:45:06;14.02;;;8.05;;
81619;SDS011;71028;53.410;6.710;2024-03-07T03:47:36;17.45;;;9.27;;
81619;SDS011;71028;53.410;6.710;2024-03-07T03:50:05;12.95;;;8.25;;
81619;SDS011;71028;53.410;6.710;2024-03-07T03:52:32;14.63;;;8.48;;
81619;SDS011;71028;53.410;6.710;2024-03-07T03:55:00;15.10;;;9.68;;
81619;SDS011;71028;53.410;6.710;2024-03-07T03:57:27;16.92;;;8.57;;
81619;SDS011;71028;53.410;6.710;2024-03-07T03:59:53;14.18;;;8.57;;
81619;SDS011;71028;53.410;6.710;2024-03-07T04:02:19;17.08;;;9.45;;
81619;SDS011;71028;53.410;6.710;2024-03-07T04:04:45;14.73;;;8.90;;
81619;SDS011;71028;53.410;6.710;2024-03-07T04:07:12;15.52;;;8.85;;
81619;SDS011;71028;53.410;6.710;2024-03-07T04:09:38;13.10;;;9.13;;
81619;SDS011;71028;53.410;6.710;2024-03-07T04:12:04;18.48;;;10.27;;
81619;SDS011;71028;53.410;6.710;2024-03-07T04:14:30;15.70;;;9.23;;
81619;SDS011;71028;53.410;6.710;2024-03-07T04:17:00;14.00;;;8.75;;
81619;SDS011;71028;53.410;6.710;2024-03-07T04:19:27;19.33;;;9.68;;
81619;SDS011;71028;53.410;6.710;2024-03-07T04:21:53;20.98;;;10.02;;
81619;SDS011;71028;53.410;6.710;2024-03-07T04:24:19;19.38;;;10.45;;
81619;SDS011;71028;53.410;6.710;2024-03-07T04:26:45;21.90;;;11.65;;
81619;SDS011;71028;53.410;6.710;2024-03-07T04:29:11;18.55;;;10.45;;
81619;SDS011;71028;53.410;6.710;2024-03-07T04:31:37;20.27;;;10.15;;
81619;SDS011;71028;53.410;6.710;2024-03-07T04:34:03;18.02;;;10.30;;
81619;SDS011;71028;53.410;6.710;2024-03-07T04:36:29;18.67;;;11.07;;
81619;SDS011;71028;53.410;6.710;2024-03-07T04:38:57;22.23;;;11.70;;
81619;SDS011;71028;53.410;6.710;2024-03-07T04:41:23;24.98;;;12.48;;
81619;SDS011;71028;53.410;6.710;2024-03-07T04:43:49;21.42;;;11.60;;
81619;SDS011;71028;53.410;6.710;2024-03-07T04:46:15;21.20;;;11.38;;
81619;SDS011;71028;53.410;6.710;2024-03-07T04:48:42;23.48;;;12.57;;
81619;SDS011;71028;53.410;6.710;2024-03-07T04:51:08;22.88;;;13.02;;
81619;SDS011;71028;53.410;6.710;2024-03-07T04:53:34;23.83;;;12.18;;
81619;SDS011;71028;53.410;6.710;2024-03-07T04:56:03;24.70;;;14.15;;
81619;SDS011;71028;53.410;6.710;2024-03-07T04:58:30;27.02;;;14.35;;
81619;SDS011;71028;53.410;6.710;2024-03-07T05:00:55;26.30;;;13.90;;
81619;SDS011;71028;53.410;6.710;2024-03-07T05:03:23;23.85;;;13.40;;
81619;SDS011;71028;53.410;6.710;2024-03-07T05:05:49;21.52;;;11.32;;
81619;SDS011;71028;53.410;6.710;2024-03-07T05:08:15;29.63;;;13.25;;
81619;SDS011;71028;53.410;6.710;2024-03-07T05:10:41;24.23;;;13.00;;
81619;SDS011;71028;53.410;6.710;2024-03-07T05:13:07;33.00;;;14.40;;
81619;SDS011;71028;53.410;6.710;2024-03-07T05:15:33;50.50;;;20.55;;
81619;SDS011;71028;53.410;6.710;2024-03-07T05:17:59;42.88;;;19.98;;
81619;SDS011;71028;53.410;6.710;2024-03-07T05:20:25;29.17;;;14.15;;
81619;SDS011;71028;53.410;6.710;2024-03-07T05:22:54;26.63;;;15.20;;
81619;SDS011;71028;53.410;6.710;2024-03-07T05:25:20;25.42;;;14.02;;
81619;SDS011;71028;53.410;6.710;2024-03-07T05:27:49;31.63;;;17.58;;
81619;SDS011;71028;53.410;6.710;2024-03-07T05:30:16;38.83;;;18.58;;
81619;SDS011;71028;53.410;6.710;2024-03-07T05:32:42;44.67;;;20.33;;
81619;SDS011;71028;53.410;6.710;2024-03-07T05:35:08;33.97;;;18.77;;
81619;SDS011;71028;53.410;6.710;2024-03-07T05:37:36;33.03;;;16.17;;
81619;SDS011;71028;53.410;6.710;2024-03-07T05:40:02;26.20;;;14.57;;
81619;SDS011;71028;53.410;6.710;2024-03-07T05:42:29;27.30;;;14.25;;
81619;SDS011;71028;53.410;6.710;2024-03-07T05:44:56;28.60;;;14.68;;
81619;SDS011;71028;53.410;6.710;2024-03-07T05:47:23;31.80;;;15.73;;
81619;SDS011;71028;53.410;6.710;2024-03-07T05:49:49;35.03;;;15.48;;
81619;SDS011;71028;53.410;6.710;2024-03-07T05:52:15;44.67;;;19.67;;
81619;SDS011;71028;53.410;6.710;2024-03-07T05:54:42;49.55;;;20.05;;
81619;SDS011;71028;53.410;6.710;2024-03-07T05:57:08;44.97;;;18.98;;
81619;SDS011;71028;53.410;6.710;2024-03-07T05:59:35;40.60;;;17.77;;
81619;SDS011;71028;53.410;6.710;2024-03-07T06:02:01;37.55;;;16.58;;
81619;SDS011;71028;53.410;6.710;2024-03-07T06:04:27;31.10;;;14.35;;
81619;SDS011;71028;53.410;6.710;2024-03-07T06:06:54;29.30;;;14.23;;
81619;SDS011;71028;53.410;6.710;2024-03-07T06:09:20;33.53;;;15.77;;
81619;SDS011;71028;53.410;6.710;2024-03-07T06:11:47;31.77;;;15.57;;
81619;SDS011;71028;53.410;6.710;2024-03-07T06:14:13;32.55;;;15.45;;
81619;SDS011;71028;53.410;6.710;2024-03-07T06:16:39;29.63;;;14.98;;
81619;SDS011;71028;53.410;6.710;2024-03-07T06:19:06;33.67;;;15.82;;
81619;SDS011;71028;53.410;6.710;2024-03-07T06:21:33;34.25;;;15.75;;
81619;SDS011;71028;53.410;6.710;2024-03-07T06:23:59;34.40;;;14.40;;
81619;SDS011;71028;53.410;6.710;2024-03-07T06:26:26;30.60;;;14.50;;
81619;SDS011;71028;53.410;6.710;2024-03-07T06:29:05;32.60;;;14.05;;
81619;SDS011;71028;53.410;6.710;2024-03-07T06:31:31;34.03;;;15.85;;
81619;SDS011;71028;53.410;6.710;2024-03-07T06:33:58;41.90;;;17.02;;
81619;SDS011;71028;53.410;6.710;2024-03-07T06:36:24;31.52;;;16.60;;
81619;SDS011;71028;53.410;6.710;2024-03-07T06:38:50;38.30;;;17.17;;
81619;SDS011;71028;53.410;6.710;2024-03-07T06:41:16;37.45;;;15.35;;
81619;SDS011;71028;53.410;6.710;2024-03-07T06:43:45;33.40;;;15.43;;
81619;SDS011;71028;53.410;6.710;2024-03-07T06:46:12;38.88;;;17.02;;
81619;SDS011;71028;53.410;6.710;2024-03-07T06:48:38;42.47;;;18.08;;
81619;SDS011;71028;53.410;6.710;2024-03-07T06:51:07;37.50;;;17.85;;
81619;SDS011;71028;53.410;6.710;2024-03-07T06:53:33;35.70;;;15.30;;
81619;SDS011;71028;53.410;6.710;2024-03-07T06:55:59;34.55;;;16.88;;
81619;SDS011;71028;53.410;6.710;2024-03-07T06:58:26;41.63;;;17.02;;
81619;SDS011;71028;53.410;6.710;2024-03-07T07:00:52;54.42;;;19.15;;
81619;SDS011;71028;53.410;6.710;2024-03-07T07:03:22;49.58;;;18.63;;
81619;SDS011;71028;53.410;6.710;2024-03-07T07:05:49;45.20;;;18.75;;
81619;SDS011;71028;53.410;6.710;2024-03-07T07:08:15;73.82;;;21.75;;
81619;SDS011;71028;53.410;6.710;2024-03-07T07:10:41;66.97;;;21.88;;
81619;SDS011;71028;53.410;6.710;2024-03-07T07:13:07;53.65;;;19.73;;
81619;SDS011;71028;53.410;6.710;2024-03-07T07:15:34;51.40;;;17.00;;
81619;SDS011;71028;53.410;6.710;2024-03-07T07:18:02;54.33;;;18.00;;
81619;SDS011;71028;53.410;6.710;2024-03-07T07:20:29;58.92;;;16.20;;
81619;SDS011;71028;53.410;6.710;2024-03-07T07:22:55;52.80;;;15.95;;
81619;SDS011;71028;53.410;6.710;2024-03-07T07:25:23;42.30;;;14.55;;
81619;SDS011;71028;53.410;6.710;2024-03-07T07:27:50;34.40;;;15.35;;
81619;SDS011;71028;53.410;6.710;2024-03-07T07:30:20;56.47;;;14.10;;
81619;SDS011;71028;53.410;6.710;2024-03-07T07:32:52;32.88;;;15.80;;
81619;SDS011;71028;53.410;6.710;2024-03-07T07:35:18;33.70;;;13.75;;
81619;SDS011;71028;53.410;6.710;2024-03-07T07:37:46;46.25;;;17.00;;
81619;SDS011;71028;53.410;6.710;2024-03-07T07:40:14;51.88;;;21.35;;
81619;SDS011;71028;53.410;6.710;2024-03-07T07:42:43;56.83;;;21.20;;
81619;SDS011;71028;53.410;6.710;2024-03-07T07:45:09;47.63;;;14.80;;
81619;SDS011;71028;53.410;6.710;2024-03-07T07:47:42;40.67;;;16.83;;
81619;SDS011;71028;53.410;6.710;2024-03-07T07:50:12;57.63;;;27.50;;
81619;SDS011;71028;53.410;6.710;2024-03-07T07:55:18;53.38;;;15.30;;
81619;SDS011;71028;53.410;6.710;2024-03-07T07:57:45;31.63;;;14.10;;
81619;SDS011;71028;53.410;6.710;2024-03-07T08:00:12;33.80;;;14.32;;
81619;SDS011;71028;53.410;6.710;2024-03-07T08:02:46;26.23;;;12.60;;
81619;SDS011;71028;53.410;6.710;2024-03-07T08:05:12;36.55;;;14.98;;
81619;SDS011;71028;53.410;6.710;2024-03-07T08:07:42;25.48;;;12.65;;
81619;SDS011;71028;53.410;6.710;2024-03-07T08:10:09;30.83;;;12.60;;
81619;SDS011;71028;53.410;6.710;2024-03-07T08:12:35;25.92;;;11.65;;
81619;SDS011;71028;53.410;6.710;2024-03-07T08:15:02;34.97;;;13.20;;
81619;SDS011;71028;53.410;6.710;2024-03-07T08:17:29;25.58;;;11.68;;
81619;SDS011;71028;53.410;6.710;2024-03-07T08:19:56;33.67;;;12.85;;
81619;SDS011;71028;53.410;6.710;2024-03-07T08:22:22;28.10;;;12.90;;
81619;SDS011;71028;53.410;6.710;2024-03-07T08:24:49;32.67;;;12.30;;
81619;SDS011;71028;53.410;6.710;2024-03-07T08:27:15;23.15;;;11.57;;
81619;SDS011;71028;53.410;6.710;2024-03-07T08:29:43;26.55;;;12.40;;
81619;SDS011;71028;53.410;6.710;2024-03-07T08:32:09;28.80;;;12.07;;
81619;SDS011;71028;53.410;6.710;2024-03-07T08:34:35;29.00;;;13.60;;
81619;SDS011;71028;53.410;6.710;2024-03-07T08:37:01;33.38;;;14.13;;
81619;SDS011;71028;53.410;6.710;2024-03-07T08:39:29;27.75;;;11.18;;
81619;SDS011;71028;53.410;6.710;2024-03-07T08:41:55;30.55;;;13.13;;
81619;SDS011;71028;53.410;6.710;2024-03-07T08:44:21;27.88;;;12.48;;
81619;SDS011;71028;53.410;6.710;2024-03-07T08:46:47;26.35;;;12.10;;
81619;SDS011;71028;53.410;6.710;2024-03-07T08:49:16;26.42;;;11.80;;
81619;SDS011;71028;53.410;6.710;2024-03-07T08:51:42;28.08;;;12.43;;
81619;SDS011;71028;53.410;6.710;2024-03-07T08:54:08;28.27;;;12.23;;
81619;SDS011;71028;53.410;6.710;2024-03-07T08:56:34;25.88;;;13.05;;
81619;SDS011;71028;53.410;6.710;2024-03-07T08:59:00;25.65;;;12.88;;
81619;SDS011;71028;53.410;6.710;2024-03-07T09:01:27;27.80;;;12.13;;
81619;SDS011;71028;53.410;6.710;2024-03-07T09:03:53;22.55;;;11.88;;
81619;SDS011;71028;53.410;6.710;2024-03-07T09:06:19;28.33;;;13.40;;
81619;SDS011;71028;53.410;6.710;2024-03-07T09:08:45;22.90;;;10.98;;
81619;SDS011;71028;53.410;6.710;2024-03-07T09:11:11;23.35;;;10.77;;
81619;SDS011;71028;53.410;6.710;2024-03-07T09:13:37;22.92;;;11.00;;
81619;SDS011;71028;53.410;6.710;2024-03-07T09:16:04;21.58;;;11.68;;
81619;SDS011;71028;53.410;6.710;2024-03-07T09:18:31;27.15;;;11.40;;
81619;SDS011;71028;53.410;6.710;2024-03-07T09:20:57;23.33;;;10.88;;
81619;SDS011;71028;53.410;6.710;2024-03-07T09:23:23;22.80;;;10.77;;
81619;SDS011;71028;53.410;6.710;2024-03-07T09:25:49;22.65;;;10.75;;
81619;SDS011;71028;53.410;6.710;2024-03-07T09:28:15;24.05;;;10.93;;
81619;SDS011;71028;53.410;6.710;2024-03-07T09:30:41;22.73;;;10.38;;
81619;SDS011;71028;53.410;6.710;2024-03-07T09:33:07;23.45;;;10.80;;
81619;SDS011;71028;53.410;6.710;2024-03-07T09:35:35;25.95;;;10.85;;
81619;SDS011;71028;53.410;6.710;2024-03-07T09:38:03;22.77;;;11.15;;
81619;SDS011;71028;53.410;6.710;2024-03-07T09:40:29;21.00;;;10.27;;
81619;SDS011;71028;53.410;6.710;2024-03-07T09:42:55;24.30;;;10.13;;
81619;SDS011;71028;53.410;6.710;2024-03-07T09:45:23;24.60;;;11.55;;
81619;SDS011;71028;53.410;6.710;2024-03-07T09:47:53;24.65;;;11.45;;
81619;SDS011;71028;53.410;6.710;2024-03-07T09:50:19;22.75;;;11.10;;
81619;SDS011;71028;53.410;6.710;2024-03-07T09:52:49;21.42;;;10.50;;
81619;SDS011;71028;53.410;6.710;2024-03-07T09:55:17;24.90;;;11.02;;
81619;SDS011;71028;53.410;6.710;2024-03-07T09:57:48;26.83;;;11.25;;
81619;SDS011;71028;53.410;6.710;2024-03-07T10:00:18;25.25;;;10.82;;
81619;SDS011;71028;53.410;6.710;2024-03-07T10:02:48;20.88;;;10.07;;
81619;SDS011;71028;53.410;6.710;2024-03-07T10:05:14;24.40;;;11.15;;
81619;SDS011;71028;53.410;6.710;2024-03-07T10:07:41;24.92;;;12.77;;
81619;SDS011;71028;53.410;6.710;2024-03-07T10:10:08;22.75;;;11.70;;
81619;SDS011;71028;53.410;6.710;2024-03-07T10:12:37;21.75;;;11.82;;
81619;SDS011;71028;53.410;6.710;2024-03-07T10:15:03;27.80;;;11.98;;
81619;SDS011;71028;53.410;6.710;2024-03-07T10:17:37;23.08;;;10.25;;
81619;SDS011;71028;53.410;6.710;2024-03-07T10:20:04;18.90;;;10.15;;
81619;SDS011;71028;53.410;6.710;2024-03-07T10:22:35;22.42;;;10.73;;
81619;SDS011;71028;53.410;6.710;2024-03-07T10:25:01;27.65;;;12.43;;
81619;SDS011;71028;53.410;6.710;2024-03-07T10:27:29;27.58;;;12.05;;
81619;SDS011;71028;53.410;6.710;2024-03-07T10:29:55;26.02;;;10.98;;
81619;SDS011;71028;53.410;6.710;2024-03-07T10:32:21;21.35;;;11.50;;
81619;SDS011;71028;53.410;6.710;2024-03-07T10:34:50;25.70;;;11.90;;
81619;SDS011;71028;53.410;6.710;2024-03-07T10:37:16;22.88;;;11.50;;
81619;SDS011;71028;53.410;6.710;2024-03-07T10:39:45;22.33;;;10.02;;
81619;SDS011;71028;53.410;6.710;2024-03-07T10:42:13;22.60;;;11.05;;
81619;SDS011;71028;53.410;6.710;2024-03-07T10:44:44;21.63;;;10.80;;
81619;SDS011;71028;53.410;6.710;2024-03-07T10:47:17;28.83;;;12.57;;
81619;SDS011;71028;53.410;6.710;2024-03-07T10:52:54;25.60;;;11.65;;
81619;SDS011;71028;53.410;6.710;2024-03-07T10:55:19;25.33;;;10.82;;
81619;SDS011;71028;53.410;6.710;2024-03-07T10:57:51;20.05;;;10.35;;
81619;SDS011;71028;53.410;6.710;2024-03-07T11:00:21;21.73;;;11.15;;
81619;SDS011;71028;53.410;6.710;2024-03-07T11:03:04;30.50;;;12.38;;
81619;SDS011;71028;53.410;6.710;2024-03-07T11:05:32;25.35;;;11.93;;
81619;SDS011;71028;53.410;6.710;2024-03-07T11:07:58;22.58;;;10.20;;
81619;SDS011;71028;53.410;6.710;2024-03-07T11:10:28;18.05;;;10.27;;
81619;SDS011;71028;53.410;6.710;2024-03-07T11:12:56;23.35;;;10.13;;
81619;SDS011;71028;53.410;6.710;2024-03-07T11:15:23;20.63;;;10.15;;
81619;SDS011;71028;53.410;6.710;2024-03-07T11:17:52;21.83;;;10.23;;
81619;SDS011;71028;53.410;6.710;2024-03-07T11:20:22;21.52;;;9.45;;
81619;SDS011;71028;53.410;6.710;2024-03-07T11:22:49;25.10;;;10.82;;
81619;SDS011;71028;53.410;6.710;2024-03-07T11:25:19;21.08;;;10.32;;
81619;SDS011;71028;53.410;6.710;2024-03-07T11:27:56;21.38;;;10.30;;
81619;SDS011;71028;53.410;6.710;2024-03-07T11:30:23;21.33;;;10.60;;
81619;SDS011;71028;53.410;6.710;2024-03-07T11:32:49;19.15;;;9.55;;
81619;SDS011;71028;53.410;6.710;2024-03-07T11:35:18;20.88;;;9.40;;
81619;SDS011;71028;53.410;6.710;2024-03-07T11:37:55;22.17;;;10.05;;
81619;SDS011;71028;53.410;6.710;2024-03-07T11:42:49;20.77;;;8.93;;
81619;SDS011;71028;53.410;6.710;2024-03-07T11:45:16;21.77;;;10.50;;
81619;SDS011;71028;53.410;6.710;2024-03-07T11:47:52;21.50;;;9.95;;
81619;SDS011;71028;53.410;6.710;2024-03-07T11:50:34;20.48;;;9.50;;
81619;SDS011;71028;53.410;6.710;2024-03-07T11:53:01;19.83;;;10.07;;
81619;SDS011;71028;53.410;6.710;2024-03-07T11:55:27;17.80;;;8.10;;
81619;SDS011;71028;53.410;6.710;2024-03-07T11:57:53;22.10;;;10.73;;
81619;SDS011;71028;53.410;6.710;2024-03-07T12:00:20;17.50;;;8.38;;
81619;SDS011;71028;53.410;6.710;2024-03-07T12:02:49;23.13;;;9.52;;
81619;SDS011;71028;53.410;6.710;2024-03-07T12:05:15;21.63;;;10.18;;
81619;SDS011;71028;53.410;6.710;2024-03-07T12:07:42;22.48;;;9.98;;
81619;SDS011;71028;53.410;6.710;2024-03-07T12:10:08;20.10;;;10.35;;
81619;SDS011;71028;53.410;6.710;2024-03-07T12:12:35;18.10;;;9.93;;
81619;SDS011;71028;53.410;6.710;2024-03-07T12:15:04;19.75;;;9.93;;
81619;SDS011;71028;53.410;6.710;2024-03-07T12:17:34;22.58;;;11.10;;
81619;SDS011;71028;53.410;6.710;2024-03-07T12:20:01;25.95;;;10.65;;
81619;SDS011;71028;53.410;6.710;2024-03-07T12:22:47;21.83;;;9.20;;
81619;SDS011;71028;53.410;6.710;2024-03-07T12:25:17;18.10;;;9.50;;
81619;SDS011;71028;53.410;6.710;2024-03-07T12:27:46;20.63;;;10.55;;
81619;SDS011;71028;53.410;6.710;2024-03-07T12:30:16;18.55;;;9.82;;
81619;SDS011;71028;53.410;6.710;2024-03-07T12:32:48;21.33;;;10.70;;
81619;SDS011;71028;53.410;6.710;2024-03-07T12:35:14;22.55;;;11.00;;
81619;SDS011;71028;53.410;6.710;2024-03-07T12:37:41;23.55;;;10.88;;
81619;SDS011;71028;53.410;6.710;2024-03-07T12:40:13;21.05;;;11.15;;
81619;SDS011;71028;53.410;6.710;2024-03-07T12:42:46;26.10;;;12.15;;
81619;SDS011;71028;53.410;6.710;2024-03-07T12:45:12;24.63;;;10.80;;
81619;SDS011;71028;53.410;6.710;2024-03-07T12:47:43;24.23;;;10.82;;
81619;SDS011;71028;53.410;6.710;2024-03-07T12:50:09;23.25;;;11.32;;
81619;SDS011;71028;53.410;6.710;2024-03-07T12:52:38;18.75;;;10.32;;
81619;SDS011;71028;53.410;6.710;2024-03-07T12:55:05;20.13;;;9.80;;
81619;SDS011;71028;53.410;6.710;2024-03-07T12:57:32;21.15;;;10.40;;
81619;SDS011;71028;53.410;6.710;2024-03-07T12:59:58;20.35;;;10.27;;
81619;SDS011;71028;53.410;6.710;2024-03-07T13:02:24;25.15;;;11.20;;
81619;SDS011;71028;53.410;6.710;2024-03-07T13:04:52;22.42;;;10.23;;
81619;SDS011;71028;53.410;6.710;2024-03-07T13:07:18;22.38;;;9.70;;
81619;SDS011;71028;53.410;6.710;2024-03-07T13:09:44;22.05;;;11.80;;
81619;SDS011;71028;53.410;6.710;2024-03-07T13:12:13;22.38;;;10.75;;
81619;SDS011;71028;53.410;6.710;2024-03-07T13:14:40;17.38;;;9.75;;
81619;SDS011;71028;53.410;6.710;2024-03-07T13:17:08;25.35;;;10.65;;
81619;SDS011;71028;53.410;6.710;2024-03-07T13:19:34;23.27;;;10.43;;
81619;SDS011;71028;53.410;6.710;2024-03-07T13:22:03;21.13;;;9.90;;
81619;SDS011;71028;53.410;6.710;2024-03-07T13:24:31;22.95;;;10.90;;
81619;SDS011;71028;53.410;6.710;2024-03-07T13:27:00;18.48;;;9.57;;
81619;SDS011;71028;53.410;6.710;2024-03-07T13:29:26;22.08;;;9.77;;
81619;SDS011;71028;53.410;6.710;2024-03-07T13:31:53;19.88;;;9.98;;
81619;SDS011;71028;53.410;6.710;2024-03-07T13:34:21;21.60;;;9.27;;
81619;SDS011;71028;53.410;6.710;2024-03-07T13:36:50;19.13;;;9.68;;
81619;SDS011;71028;53.410;6.710;2024-03-07T13:39:17;20.17;;;11.43;;
81619;SDS011;71028;53.410;6.710;2024-03-07T13:41:43;24.77;;;10.00;;
81619;SDS011;71028;53.410;6.710;2024-03-07T13:44:13;18.65;;;10.48;;
81619;SDS011;71028;53.410;6.710;2024-03-07T13:46:40;20.40;;;10.63;;
81619;SDS011;71028;53.410;6.710;2024-03-07T13:49:06;17.42;;;10.45;;
81619;SDS011;71028;53.410;6.710;2024-03-07T13:51:37;19.05;;;10.32;;
81619;SDS011;71028;53.410;6.710;2024-03-07T13:54:04;17.40;;;9.73;;
81619;SDS011;71028;53.410;6.710;2024-03-07T13:59:42;24.38;;;10.50;;
81619;SDS011;71028;53.410;6.710;2024-03-07T14:18:06;14.63;;;8.48;;
81619;SDS011;71028;53.410;6.710;2024-03-07T14:20:46;17.63;;;9.15;;
81619;SDS011;71028;53.410;6.710;2024-03-07T14:23:31;16.55;;;8.15;;
81619;SDS011;71028;53.410;6.710;2024-03-07T14:31:04;17.70;;;8.23;;
81619;SDS011;71028;53.410;6.710;2024-03-07T14:33:47;15.23;;;7.93;;
81619;SDS011;71028;53.410;6.710;2024-03-07T14:36:14;16.05;;;8.13;;
81619;SDS011;71028;53.410;6.710;2024-03-07T14:38:51;13.52;;;8.60;;
81619;SDS011;71028;53.410;6.710;2024-03-07T14:41:19;14.35;;;8.88;;
81619;SDS011;71028;53.410;6.710;2024-03-07T14:43:47;16.15;;;8.77;;
81619;SDS011;71028;53.410;6.710;2024-03-07T14:46:14;17.27;;;8.35;;
81619;SDS011;71028;53.410;6.710;2024-03-07T14:48:41;18.65;;;9.20;;
81619;SDS011;71028;53.410;6.710;2024-03-07T14:51:08;18.25;;;9.07;;
81619;SDS011;71028;53.410;6.710;2024-03-07T14:53:38;17.25;;;9.27;;
81619;SDS011;71028;53.410;6.710;2024-03-07T14:56:05;14.57;;;9.00;;
81619;SDS011;71028;53.410;6.710;2024-03-07T14:58:31;19.17;;;9.15;;
81619;SDS011;71028;53.410;6.710;2024-03-07T15:00:57;16.83;;;9.85;;